sensor_id;sensor_type;location;lat;lon;timestamp;P1;durP1;ratioP1;P2;durP2;ratioP2
14116;SDS011;7137;51.436;6.544;2023-06-19T00:01:25;6.47;;;5.63;;
14116;SDS011;7137;51.436;6.544;2023-06-19T00:04:26;5.87;;;5.10;;
14116;SDS011;7137;51.436;6.544;2023-06-19T00:07:29;6.10;;;5.30;;
14116;SDS011;7137;51.436;6.544;2023-06-19T00:10:31;6.50;;;5.33;;
14116;SDS011;7137;51.436;6.544;2023-06-19T00:13:32;5.70;;;4.93;;
14116;SDS011;7137;51.436;6.544;2023-06-19T00:16:34;8.37;;;5.17;;
14116;SDS011;7137;51.436;6.544;2023-06-19T00:19:36;7.27;;;5.23;;
14116;SDS011;7137;51.436;6.544;2023-06-19T00:22:39;6.10;;;5.10;;
14116;SDS011;7137;51.436;6.544;2023-06-19T00:25:41;6.23;;;4.73;;
14116;SDS011;7137;51.436;6.544;2023-06-19T00:28:43;6.27;;;5.23;;
14116;SDS011;7137;51.436;6.544;2023-06-19T00:31:45;6.90;;;5.53;;
14116;SDS011;7137;51.436;6.544;2023-06-19T00:34:47;6.87;;;4.90;;
14116;SDS011;7137;51.436;6.544;2023-06-19T00:37:49;6.67;;;4.70;;
14116;SDS011;7137;51.436;6.544;2023-06-19T00:40:51;5.70;;;4.90;;
14116;SDS011;7137;51.436;6.544;2023-06-19T00:43:53;7.70;;;5.27;;
14116;SDS011;7137;51.436;6.544;2023-06-19T00:46:55;6.17;;;4.60;;
14116;SDS011;7137;51.436;6.544;2023-06-19T00:49:58;6.13;;;4.93;;
14116;SDS011;7137;51.436;6.544;2023-06-19T00:53:01;6.67;;;5.43;;
14116;SDS011;7137;51.436;6.544;2023-06-19T00:56:04;6.60;;;4.90;;
14116;SDS011;7137;51.436;6.544;2023-06-19T00:59:10;5.90;;;4.83;;
14116;SDS011;7137;51.436;6.544;2023-06-19T01:02:15;5.50;;;4.83;;
14116;SDS011;7137;51.436;6.544;2023-06-19T01:05:17;6.43;;;4.87;;
14116;SDS011;7137;51.436;6.544;2023-06-19T01:08:22;7.63;;;5.33;;
14116;SDS011;7137;51.436;6.544;2023-06-19T01:11:42;5.77;;;4.70;;
14116;SDS011;7137;51.436;6.544;2023-06-19T01:14:47;5.63;;;4.47;;
14116;SDS011;7137;51.436;6.544;2023-06-19T01:17:55;6.00;;;4.90;;
14116;SDS011;7137;51.436;6.544;2023-06-19T01:21:08;6.40;;;5.00;;
14116;SDS011;7137;51.436;6.544;2023-06-19T01:24:12;5.97;;;5.27;;
14116;SDS011;7137;51.436;6.544;2023-06-19T01:27:13;6.60;;;5.13;;
14116;SDS011;7137;51.436;6.544;2023-06-19T01:30:15;6.17;;;4.70;;
14116;SDS011;7137;51.436;6.544;2023-06-19T01:33:18;5.30;;;4.57;;
14116;SDS011;7137;51.436;6.544;2023-06-19T01:36:26;7.23;;;4.73;;
14116;SDS011;7137;51.436;6.544;2023-06-19T01:39:30;5.60;;;4.50;;
14116;SDS011;7137;51.436;6.544;2023-06-19T01:42:33;5.30;;;4.77;;
14116;SDS011;7137;51.436;6.544;2023-06-19T01:45:36;5.50;;;4.63;;
14116;SDS011;7137;51.436;6.544;2023-06-19T01:48:38;6.10;;;5.07;;
14116;SDS011;7137;51.436;6.544;2023-06-19T01:51:40;6.13;;;5.10;;
14116;SDS011;7137;51.436;6.544;2023-06-19T01:54:43;5.57;;;4.80;;
14116;SDS011;7137;51.436;6.544;2023-06-19T01:57:44;5.90;;;4.87;;
14116;SDS011;7137;51.436;6.544;2023-06-19T02:00:47;6.97;;;5.03;;
14116;SDS011;7137;51.436;6.544;2023-06-19T02:03:48;6.10;;;4.47;;
14116;SDS011;7137;51.436;6.544;2023-06-19T02:06:50;7.60;;;5.20;;
14116;SDS011;7137;51.436;6.544;2023-06-19T02:09:53;5.63;;;4.87;;
14116;SDS011;7137;51.436;6.544;2023-06-19T02:12:54;5.70;;;4.80;;
14116;SDS011;7137;51.436;6.544;2023-06-19T02:15:56;5.53;;;4.93;;
14116;SDS011;7137;51.436;6.544;2023-06-19T02:18:57;7.40;;;5.30;;
14116;SDS011;7137;51.436;6.544;2023-06-19T02:22:00;5.97;;;5.37;;
14116;SDS011;7137;51.436;6.544;2023-06-19T02:25:03;7.57;;;5.07;;
14116;SDS011;7137;51.436;6.544;2023-06-19T02:28:05;8.10;;;5.30;;
14116;SDS011;7137;51.436;6.544;2023-06-19T02:31:07;6.90;;;5.50;;
14116;SDS011;7137;51.436;6.544;2023-06-19T02:34:08;6.13;;;5.53;;
14116;SDS011;7137;51.436;6.544;2023-06-19T02:37:10;6.20;;;5.40;;
14116;SDS011;7137;51.436;6.544;2023-06-19T02:40:13;7.13;;;5.90;;
14116;SDS011;7137;51.436;6.544;2023-06-19T02:43:15;8.67;;;6.20;;
14116;SDS011;7137;51.436;6.544;2023-06-19T02:46:16;5.97;;;5.37;;
14116;SDS011;7137;51.436;6.544;2023-06-19T02:49:18;6.47;;;5.20;;
14116;SDS011;7137;51.436;6.544;2023-06-19T02:52:19;6.60;;;5.20;;
14116;SDS011;7137;51.436;6.544;2023-06-19T02:55:22;5.97;;;4.97;;
14116;SDS011;7137;51.436;6.544;2023-06-19T02:58:24;5.50;;;4.60;;
14116;SDS011;7137;51.436;6.544;2023-06-19T03:01:26;6.47;;;5.00;;
14116;SDS011;7137;51.436;6.544;2023-06-19T03:04:28;5.73;;;4.97;;
14116;SDS011;7137;51.436;6.544;2023-06-19T03:07:30;5.60;;;4.40;;
14116;SDS011;7137;51.436;6.544;2023-06-19T03:10:33;5.43;;;4.40;;
14116;SDS011;7137;51.436;6.544;2023-06-19T03:13:36;5.43;;;4.10;;
14116;SDS011;7137;51.436;6.544;2023-06-19T03:16:45;5.67;;;4.00;;
14116;SDS011;7137;51.436;6.544;2023-06-19T03:19:47;5.30;;;3.97;;
14116;SDS011;7137;51.436;6.544;2023-06-19T03:22:49;5.10;;;3.70;;
14116;SDS011;7137;51.436;6.544;2023-06-19T03:25:53;4.67;;;3.83;;
14116;SDS011;7137;51.436;6.544;2023-06-19T03:28:54;4.50;;;3.53;;
14116;SDS011;7137;51.436;6.544;2023-06-19T03:31:56;5.77;;;3.70;;
14116;SDS011;7137;51.436;6.544;2023-06-19T03:34:57;5.07;;;3.60;;
14116;SDS011;7137;51.436;6.544;2023-06-19T03:37:59;5.20;;;3.20;;
14116;SDS011;7137;51.436;6.544;2023-06-19T03:41:01;4.83;;;3.57;;
14116;SDS011;7137;51.436;6.544;2023-06-19T03:44:03;4.73;;;3.60;;
14116;SDS011;7137;51.436;6.544;2023-06-19T03:47:05;5.63;;;3.60;;
14116;SDS011;7137;51.436;6.544;2023-06-19T03:50:07;5.27;;;3.60;;
14116;SDS011;7137;51.436;6.544;2023-06-19T03:53:09;4.97;;;3.87;;
14116;SDS011;7137;51.436;6.544;2023-06-19T03:56:12;6.00;;;3.63;;
14116;SDS011;7137;51.436;6.544;2023-06-19T03:59:14;5.57;;;3.73;;
14116;SDS011;7137;51.436;6.544;2023-06-19T04:02:15;6.50;;;3.80;;
14116;SDS011;7137;51.436;6.544;2023-06-19T04:05:17;5.20;;;3.93;;
14116;SDS011;7137;51.436;6.544;2023-06-19T04:08:19;4.67;;;3.10;;
14116;SDS011;7137;51.436;6.544;2023-06-19T04:11:22;6.30;;;3.33;;
14116;SDS011;7137;51.436;6.544;2023-06-19T04:14:24;5.20;;;3.50;;
14116;SDS011;7137;51.436;6.544;2023-06-19T04:17:25;5.87;;;3.37;;
14116;SDS011;7137;51.436;6.544;2023-06-19T04:20:27;5.60;;;3.13;;
14116;SDS011;7137;51.436;6.544;2023-06-19T04:23:28;4.80;;;3.07;;
14116;SDS011;7137;51.436;6.544;2023-06-19T04:26:31;4.27;;;3.10;;
14116;SDS011;7137;51.436;6.544;2023-06-19T04:29:33;4.53;;;3.07;;
14116;SDS011;7137;51.436;6.544;2023-06-19T04:32:34;4.40;;;3.00;;
14116;SDS011;7137;51.436;6.544;2023-06-19T04:35:36;5.30;;;3.37;;
14116;SDS011;7137;51.436;6.544;2023-06-19T04:38:40;5.13;;;2.80;;
14116;SDS011;7137;51.436;6.544;2023-06-19T04:41:43;5.67;;;2.67;;
14116;SDS011;7137;51.436;6.544;2023-06-19T04:44:45;4.13;;;2.67;;
14116;SDS011;7137;51.436;6.544;2023-06-19T04:47:47;4.97;;;2.97;;
14116;SDS011;7137;51.436;6.544;2023-06-19T04:50:49;4.40;;;3.10;;
14116;SDS011;7137;51.436;6.544;2023-06-19T04:53:50;4.93;;;3.00;;
14116;SDS011;7137;51.436;6.544;2023-06-19T04:56:53;5.70;;;3.00;;
14116;SDS011;7137;51.436;6.544;2023-06-19T04:59:54;5.87;;;3.17;;
14116;SDS011;7137;51.436;6.544;2023-06-19T05:02:56;4.47;;;3.00;;
14116;SDS011;7137;51.436;6.544;2023-06-19T05:06:00;4.83;;;3.00;;
14116;SDS011;7137;51.436;6.544;2023-06-19T05:09:02;4.00;;;2.87;;
14116;SDS011;7137;51.436;6.544;2023-06-19T05:12:06;5.17;;;3.17;;
14116;SDS011;7137;51.436;6.544;2023-06-19T05:15:08;5.20;;;3.10;;
14116;SDS011;7137;51.436;6.544;2023-06-19T05:18:10;5.33;;;3.30;;
14116;SDS011;7137;51.436;6.544;2023-06-19T05:21:11;5.23;;;3.50;;
14116;SDS011;7137;51.436;6.544;2023-06-19T05:24:13;5.57;;;3.50;;
14116;SDS011;7137;51.436;6.544;2023-06-19T05:27:16;4.57;;;3.00;;
14116;SDS011;7137;51.436;6.544;2023-06-19T05:30:17;4.50;;;3.20;;
14116;SDS011;7137;51.436;6.544;2023-06-19T05:33:19;4.53;;;3.23;;
14116;SDS011;7137;51.436;6.544;2023-06-19T05:36:20;5.50;;;3.30;;
14116;SDS011;7137;51.436;6.544;2023-06-19T05:39:22;4.57;;;3.20;;
14116;SDS011;7137;51.436;6.544;2023-06-19T05:42:25;5.17;;;3.33;;
14116;SDS011;7137;51.436;6.544;2023-06-19T05:45:26;5.13;;;3.60;;
14116;SDS011;7137;51.436;6.544;2023-06-19T05:48:28;4.87;;;3.47;;
14116;SDS011;7137;51.436;6.544;2023-06-19T05:51:30;5.57;;;3.30;;
14116;SDS011;7137;51.436;6.544;2023-06-19T05:54:31;6.77;;;3.50;;
14116;SDS011;7137;51.436;6.544;2023-06-19T05:57:34;5.13;;;3.63;;
14116;SDS011;7137;51.436;6.544;2023-06-19T06:00:36;5.63;;;3.60;;
14116;SDS011;7137;51.436;6.544;2023-06-19T06:03:37;4.43;;;3.63;;
14116;SDS011;7137;51.436;6.544;2023-06-19T06:06:39;4.83;;;3.57;;
14116;SDS011;7137;51.436;6.544;2023-06-19T06:09:40;4.77;;;3.70;;
14116;SDS011;7137;51.436;6.544;2023-06-19T06:12:43;5.30;;;3.60;;
14116;SDS011;7137;51.436;6.544;2023-06-19T06:15:45;5.20;;;3.37;;
14116;SDS011;7137;51.436;6.544;2023-06-19T06:18:47;5.40;;;3.27;;
14116;SDS011;7137;51.436;6.544;2023-06-19T06:21:48;4.60;;;2.97;;
14116;SDS011;7137;51.436;6.544;2023-06-19T06:24:50;5.80;;;3.30;;
14116;SDS011;7137;51.436;6.544;2023-06-19T06:27:54;4.63;;;3.00;;
14116;SDS011;7137;51.436;6.544;2023-06-19T06:30:56;5.30;;;3.10;;
14116;SDS011;7137;51.436;6.544;2023-06-19T06:33:58;5.53;;;3.47;;
14116;SDS011;7137;51.436;6.544;2023-06-19T06:36:59;4.77;;;3.20;;
14116;SDS011;7137;51.436;6.544;2023-06-19T06:40:01;6.03;;;3.37;;
14116;SDS011;7137;51.436;6.544;2023-06-19T06:43:06;4.37;;;3.23;;
14116;SDS011;7137;51.436;6.544;2023-06-19T06:46:08;6.17;;;3.63;;
14116;SDS011;7137;51.436;6.544;2023-06-19T06:49:10;6.00;;;3.17;;
14116;SDS011;7137;51.436;6.544;2023-06-19T06:52:12;4.50;;;3.20;;
14116;SDS011;7137;51.436;6.544;2023-06-19T06:55:14;6.17;;;3.83;;
14116;SDS011;7137;51.436;6.544;2023-06-19T06:58:17;5.00;;;3.23;;
14116;SDS011;7137;51.436;6.544;2023-06-19T07:01:18;5.00;;;3.13;;
14116;SDS011;7137;51.436;6.544;2023-06-19T07:04:20;5.00;;;3.13;;
14116;SDS011;7137;51.436;6.544;2023-06-19T07:07:21;4.87;;;3.40;;
14116;SDS011;7137;51.436;6.544;2023-06-19T07:10:23;5.73;;;3.63;;
14116;SDS011;7137;51.436;6.544;2023-06-19T07:13:26;4.70;;;3.40;;
14116;SDS011;7137;51.436;6.544;2023-06-19T07:16:28;5.27;;;3.10;;
14116;SDS011;7137;51.436;6.544;2023-06-19T07:19:29;5.60;;;3.60;;
14116;SDS011;7137;51.436;6.544;2023-06-19T07:22:31;6.00;;;3.30;;
14116;SDS011;7137;51.436;6.544;2023-06-19T07:25:33;5.43;;;3.57;;
14116;SDS011;7137;51.436;6.544;2023-06-19T07:28:36;4.83;;;3.53;;
14116;SDS011;7137;51.436;6.544;2023-06-19T07:31:38;6.03;;;3.53;;
14116;SDS011;7137;51.436;6.544;2023-06-19T07:34:42;5.73;;;4.03;;
14116;SDS011;7137;51.436;6.544;2023-06-19T07:37:44;5.70;;;3.10;;
14116;SDS011;7137;51.436;6.544;2023-06-19T07:40:45;4.97;;;3.30;;
14116;SDS011;7137;51.436;6.544;2023-06-19T07:43:48;4.80;;;3.13;;
14116;SDS011;7137;51.436;6.544;2023-06-19T07:46:50;5.10;;;2.90;;
14116;SDS011;7137;51.436;6.544;2023-06-19T07:49:51;7.40;;;3.17;;
14116;SDS011;7137;51.436;6.544;2023-06-19T07:52:53;5.17;;;2.53;;
14116;SDS011;7137;51.436;6.544;2023-06-19T07:55:54;4.73;;;2.50;;
14116;SDS011;7137;51.436;6.544;2023-06-19T07:58:57;4.10;;;2.20;;
14116;SDS011;7137;51.436;6.544;2023-06-19T08:01:59;3.07;;;2.07;;
14116;SDS011;7137;51.436;6.544;2023-06-19T08:05:01;4.20;;;2.30;;
14116;SDS011;7137;51.436;6.544;2023-06-19T08:08:03;3.23;;;2.00;;
14116;SDS011;7137;51.436;6.544;2023-06-19T08:11:04;3.63;;;2.30;;
14116;SDS011;7137;51.436;6.544;2023-06-19T08:14:08;5.77;;;2.13;;
14116;SDS011;7137;51.436;6.544;2023-06-19T08:17:10;4.10;;;2.17;;
14116;SDS011;7137;51.436;6.544;2023-06-19T08:20:12;6.07;;;2.50;;
14116;SDS011;7137;51.436;6.544;2023-06-19T08:23:13;3.80;;;2.07;;
14116;SDS011;7137;51.436;6.544;2023-06-19T08:26:15;4.57;;;2.40;;
14116;SDS011;7137;51.436;6.544;2023-06-19T08:29:19;4.27;;;2.20;;
14116;SDS011;7137;51.436;6.544;2023-06-19T08:32:20;4.00;;;2.23;;
14116;SDS011;7137;51.436;6.544;2023-06-19T08:35:22;3.17;;;2.07;;
14116;SDS011;7137;51.436;6.544;2023-06-19T08:38:23;3.80;;;2.27;;
14116;SDS011;7137;51.436;6.544;2023-06-19T08:41:25;4.47;;;2.37;;
14116;SDS011;7137;51.436;6.544;2023-06-19T08:44:28;3.70;;;2.40;;
14116;SDS011;7137;51.436;6.544;2023-06-19T08:47:30;5.63;;;2.70;;
14116;SDS011;7137;51.436;6.544;2023-06-19T08:50:32;4.93;;;2.40;;
14116;SDS011;7137;51.436;6.544;2023-06-19T08:53:35;5.00;;;2.80;;
14116;SDS011;7137;51.436;6.544;2023-06-19T08:56:37;4.37;;;2.93;;
14116;SDS011;7137;51.436;6.544;2023-06-19T08:59:40;4.50;;;3.07;;
14116;SDS011;7137;51.436;6.544;2023-06-19T09:02:48;6.23;;;2.90;;
14116;SDS011;7137;51.436;6.544;2023-06-19T09:05:50;4.40;;;2.53;;
14116;SDS011;7137;51.436;6.544;2023-06-19T09:08:57;4.77;;;2.70;;
14116;SDS011;7137;51.436;6.544;2023-06-19T09:12:00;4.53;;;2.67;;
14116;SDS011;7137;51.436;6.544;2023-06-19T09:15:10;4.43;;;2.80;;
14116;SDS011;7137;51.436;6.544;2023-06-19T09:18:13;4.40;;;2.70;;
14116;SDS011;7137;51.436;6.544;2023-06-19T09:21:15;4.37;;;3.00;;
14116;SDS011;7137;51.436;6.544;2023-06-19T09:24:18;4.17;;;3.20;;
14116;SDS011;7137;51.436;6.544;2023-06-19T09:27:20;4.50;;;3.37;;
14116;SDS011;7137;51.436;6.544;2023-06-19T09:30:24;4.90;;;3.10;;
14116;SDS011;7137;51.436;6.544;2023-06-19T09:33:26;4.83;;;3.13;;
14116;SDS011;7137;51.436;6.544;2023-06-19T09:36:28;6.47;;;3.87;;
14116;SDS011;7137;51.436;6.544;2023-06-19T09:39:33;5.37;;;3.30;;
14116;SDS011;7137;51.436;6.544;2023-06-19T09:42:36;5.60;;;3.47;;
14116;SDS011;7137;51.436;6.544;2023-06-19T09:45:40;5.90;;;3.90;;
14116;SDS011;7137;51.436;6.544;2023-06-19T09:48:42;6.10;;;4.00;;
14116;SDS011;7137;51.436;6.544;2023-06-19T09:51:46;6.57;;;3.53;;
14116;SDS011;7137;51.436;6.544;2023-06-19T09:54:47;5.23;;;3.70;;
14116;SDS011;7137;51.436;6.544;2023-06-19T09:57:51;7.60;;;4.70;;
14116;SDS011;7137;51.436;6.544;2023-06-19T10:00:55;6.77;;;4.07;;
14116;SDS011;7137;51.436;6.544;2023-06-19T10:04:05;5.70;;;4.07;;
14116;SDS011;7137;51.436;6.544;2023-06-19T10:07:14;6.57;;;4.30;;
14116;SDS011;7137;51.436;6.544;2023-06-19T10:10:22;5.23;;;3.70;;
14116;SDS011;7137;51.436;6.544;2023-06-19T10:13:30;6.77;;;4.43;;
14116;SDS011;7137;51.436;6.544;2023-06-19T10:16:34;6.63;;;4.43;;
14116;SDS011;7137;51.436;6.544;2023-06-19T10:19:36;6.57;;;4.37;;
14116;SDS011;7137;51.436;6.544;2023-06-19T10:22:37;6.57;;;4.23;;
14116;SDS011;7137;51.436;6.544;2023-06-19T10:25:39;7.27;;;4.60;;
14116;SDS011;7137;51.436;6.544;2023-06-19T10:28:45;8.00;;;4.60;;
14116;SDS011;7137;51.436;6.544;2023-06-19T10:31:50;6.00;;;4.50;;
14116;SDS011;7137;51.436;6.544;2023-06-19T10:34:52;5.63;;;4.50;;
14116;SDS011;7137;51.436;6.544;2023-06-19T10:37:54;6.23;;;4.60;;
14116;SDS011;7137;51.436;6.544;2023-06-19T10:40:55;6.60;;;4.83;;
14116;SDS011;7137;51.436;6.544;2023-06-19T10:43:58;6.13;;;4.43;;
14116;SDS011;7137;51.436;6.544;2023-06-19T10:47:03;6.40;;;4.30;;
14116;SDS011;7137;51.436;6.544;2023-06-19T10:50:05;5.70;;;4.43;;
14116;SDS011;7137;51.436;6.544;2023-06-19T10:53:11;5.57;;;4.27;;
14116;SDS011;7137;51.436;6.544;2023-06-19T10:56:13;8.23;;;4.57;;
14116;SDS011;7137;51.436;6.544;2023-06-19T10:59:14;6.50;;;4.63;;
14116;SDS011;7137;51.436;6.544;2023-06-19T11:02:18;5.70;;;4.43;;
14116;SDS011;7137;51.436;6.544;2023-06-19T11:05:20;6.87;;;4.63;;
14116;SDS011;7137;51.436;6.544;2023-06-19T11:08:22;5.97;;;4.47;;
14116;SDS011;7137;51.436;6.544;2023-06-19T11:11:33;7.70;;;4.40;;
14116;SDS011;7137;51.436;6.544;2023-06-19T11:14:35;5.50;;;4.13;;
14116;SDS011;7137;51.436;6.544;2023-06-19T11:17:41;6.40;;;4.40;;
14116;SDS011;7137;51.436;6.544;2023-06-19T11:20:43;8.13;;;4.50;;
14116;SDS011;7137;51.436;6.544;2023-06-19T11:23:47;6.40;;;4.37;;
14116;SDS011;7137;51.436;6.544;2023-06-19T11:26:49;6.77;;;4.77;;
14116;SDS011;7137;51.436;6.544;2023-06-19T11:29:54;5.67;;;4.20;;
14116;SDS011;7137;51.436;6.544;2023-06-19T11:33:01;6.90;;;4.60;;
14116;SDS011;7137;51.436;6.544;2023-06-19T11:36:03;5.90;;;4.83;;
14116;SDS011;7137;51.436;6.544;2023-06-19T11:39:08;8.10;;;4.63;;
14116;SDS011;7137;51.436;6.544;2023-06-19T11:42:12;6.20;;;4.60;;
14116;SDS011;7137;51.436;6.544;2023-06-19T11:45:14;6.03;;;4.60;;
14116;SDS011;7137;51.436;6.544;2023-06-19T11:48:22;6.17;;;4.20;;
14116;SDS011;7137;51.436;6.544;2023-06-19T11:51:25;6.13;;;4.30;;
14116;SDS011;7137;51.436;6.544;2023-06-19T11:54:26;6.00;;;4.40;;
14116;SDS011;7137;51.436;6.544;2023-06-19T11:57:28;5.37;;;4.50;;
14116;SDS011;7137;51.436;6.544;2023-06-19T12:00:29;8.17;;;4.87;;
14116;SDS011;7137;51.436;6.544;2023-06-19T12:03:32;5.63;;;4.60;;
14116;SDS011;7137;51.436;6.544;2023-06-19T12:06:34;6.97;;;4.30;;
14116;SDS011;7137;51.436;6.544;2023-06-19T12:09:37;6.13;;;4.60;;
14116;SDS011;7137;51.436;6.544;2023-06-19T12:12:39;6.17;;;4.87;;
14116;SDS011;7137;51.436;6.544;2023-06-19T12:15:40;5.70;;;4.53;;
14116;SDS011;7137;51.436;6.544;2023-06-19T12:18:43;6.80;;;4.20;;
14116;SDS011;7137;51.436;6.544;2023-06-19T12:21:45;5.87;;;4.53;;
14116;SDS011;7137;51.436;6.544;2023-06-19T12:24:46;9.13;;;4.50;;
14116;SDS011;7137;51.436;6.544;2023-06-19T12:27:48;7.47;;;4.60;;
14116;SDS011;7137;51.436;6.544;2023-06-19T12:30:52;5.90;;;4.57;;
14116;SDS011;7137;51.436;6.544;2023-06-19T12:33:57;7.10;;;4.63;;
14116;SDS011;7137;51.436;6.544;2023-06-19T12:36:59;5.73;;;4.07;;
14116;SDS011;7137;51.436;6.544;2023-06-19T12:40:00;5.77;;;4.13;;
14116;SDS011;7137;51.436;6.544;2023-06-19T12:43:08;6.40;;;4.50;;
14116;SDS011;7137;51.436;6.544;2023-06-19T12:46:09;5.77;;;4.40;;
14116;SDS011;7137;51.436;6.544;2023-06-19T12:49:12;7.37;;;4.53;;
14116;SDS011;7137;51.436;6.544;2023-06-19T12:52:14;6.47;;;4.30;;
14116;SDS011;7137;51.436;6.544;2023-06-19T12:55:15;5.70;;;4.70;;
14116;SDS011;7137;51.436;6.544;2023-06-19T12:58:17;5.40;;;4.53;;
14116;SDS011;7137;51.436;6.544;2023-06-19T13:01:18;6.87;;;4.50;;
14116;SDS011;7137;51.436;6.544;2023-06-19T13:04:21;6.20;;;4.50;;
14116;SDS011;7137;51.436;6.544;2023-06-19T13:07:23;5.67;;;4.47;;
14116;SDS011;7137;51.436;6.544;2023-06-19T13:10:24;5.47;;;4.30;;
14116;SDS011;7137;51.436;6.544;2023-06-19T13:13:26;5.13;;;3.93;;
14116;SDS011;7137;51.436;6.544;2023-06-19T13:16:28;5.87;;;4.30;;
14116;SDS011;7137;51.436;6.544;2023-06-19T13:19:33;6.43;;;5.10;;
14116;SDS011;7137;51.436;6.544;2023-06-19T13:22:34;5.33;;;4.40;;
14116;SDS011;7137;51.436;6.544;2023-06-19T13:25:36;6.63;;;4.83;;
14116;SDS011;7137;51.436;6.544;2023-06-19T13:28:37;5.67;;;4.73;;
14116;SDS011;7137;51.436;6.544;2023-06-19T13:31:39;6.67;;;4.43;;
14116;SDS011;7137;51.436;6.544;2023-06-19T13:34:42;6.40;;;4.50;;
14116;SDS011;7137;51.436;6.544;2023-06-19T13:37:44;6.33;;;4.43;;
14116;SDS011;7137;51.436;6.544;2023-06-19T13:40:45;5.17;;;4.03;;
14116;SDS011;7137;51.436;6.544;2023-06-19T13:43:47;5.83;;;4.33;;
14116;SDS011;7137;51.436;6.544;2023-06-19T13:46:49;6.70;;;4.43;;
14116;SDS011;7137;51.436;6.544;2023-06-19T13:49:52;6.10;;;4.23;;
14116;SDS011;7137;51.436;6.544;2023-06-19T13:52:53;5.90;;;3.93;;
14116;SDS011;7137;51.436;6.544;2023-06-19T13:55:55;5.27;;;4.13;;
14116;SDS011;7137;51.436;6.544;2023-06-19T13:58:57;5.10;;;3.97;;
14116;SDS011;7137;51.436;6.544;2023-06-19T14:01:59;5.53;;;3.90;;
14116;SDS011;7137;51.436;6.544;2023-06-19T14:05:02;4.97;;;3.50;;
14116;SDS011;7137;51.436;6.544;2023-06-19T14:08:05;5.80;;;4.23;;
14116;SDS011;7137;51.436;6.544;2023-06-19T14:11:06;5.50;;;3.83;;
14116;SDS011;7137;51.436;6.544;2023-06-19T14:14:08;5.37;;;3.73;;
14116;SDS011;7137;51.436;6.544;2023-06-19T14:17:10;5.80;;;4.33;;
14116;SDS011;7137;51.436;6.544;2023-06-19T14:20:12;5.40;;;4.27;;
14116;SDS011;7137;51.436;6.544;2023-06-19T14:23:14;7.60;;;4.70;;
14116;SDS011;7137;51.436;6.544;2023-06-19T14:26:16;6.37;;;4.10;;
14116;SDS011;7137;51.436;6.544;2023-06-19T14:29:17;5.47;;;3.90;;
14116;SDS011;7137;51.436;6.544;2023-06-19T14:32:20;5.43;;;3.90;;
14116;SDS011;7137;51.436;6.544;2023-06-19T14:35:24;4.93;;;4.00;;
14116;SDS011;7137;51.436;6.544;2023-06-19T14:38:25;5.57;;;4.00;;
14116;SDS011;7137;51.436;6.544;2023-06-19T14:41:31;4.73;;;3.90;;
14116;SDS011;7137;51.436;6.544;2023-06-19T14:44:32;5.93;;;4.00;;
14116;SDS011;7137;51.436;6.544;2023-06-19T14:47:35;4.87;;;3.83;;
14116;SDS011;7137;51.436;6.544;2023-06-19T14:50:38;5.07;;;3.80;;
14116;SDS011;7137;51.436;6.544;2023-06-19T14:53:39;6.10;;;3.80;;
14116;SDS011;7137;51.436;6.544;2023-06-19T14:56:41;5.20;;;3.57;;
14116;SDS011;7137;51.436;6.544;2023-06-19T14:59:44;6.63;;;3.53;;
14116;SDS011;7137;51.436;6.544;2023-06-19T15:02:45;5.17;;;3.53;;
14116;SDS011;7137;51.436;6.544;2023-06-19T15:05:48;5.37;;;3.83;;
14116;SDS011;7137;51.436;6.544;2023-06-19T15:08:50;4.90;;;3.60;;
14116;SDS011;7137;51.436;6.544;2023-06-19T15:11:51;5.73;;;3.73;;
14116;SDS011;7137;51.436;6.544;2023-06-19T15:14:53;4.93;;;3.70;;
14116;SDS011;7137;51.436;6.544;2023-06-19T15:17:54;4.93;;;3.57;;
14116;SDS011;7137;51.436;6.544;2023-06-19T15:20:58;5.33;;;3.90;;
14116;SDS011;7137;51.436;6.544;2023-06-19T15:24:00;7.60;;;4.60;;
14116;SDS011;7137;51.436;6.544;2023-06-19T15:27:02;6.30;;;4.40;;
14116;SDS011;7137;51.436;6.544;2023-06-19T15:30:04;5.93;;;4.13;;
14116;SDS011;7137;51.436;6.544;2023-06-19T15:33:06;8.97;;;4.13;;
14116;SDS011;7137;51.436;6.544;2023-06-19T15:36:09;5.33;;;4.13;;
14116;SDS011;7137;51.436;6.544;2023-06-19T15:39:11;5.97;;;3.90;;
14116;SDS011;7137;51.436;6.544;2023-06-19T15:42:12;6.00;;;4.17;;
14116;SDS011;7137;51.436;6.544;2023-06-19T15:45:14;5.53;;;3.63;;
14116;SDS011;7137;51.436;6.544;2023-06-19T15:48:15;5.13;;;3.83;;
14116;SDS011;7137;51.436;6.544;2023-06-19T15:51:18;5.90;;;3.60;;
14116;SDS011;7137;51.436;6.544;2023-06-19T15:54:20;4.70;;;3.30;;
14116;SDS011;7137;51.436;6.544;2023-06-19T15:57:21;5.20;;;3.70;;
14116;SDS011;7137;51.436;6.544;2023-06-19T16:00:23;4.53;;;3.50;;
14116;SDS011;7137;51.436;6.544;2023-06-19T16:03:24;4.60;;;3.40;;
14116;SDS011;7137;51.436;6.544;2023-06-19T16:06:29;4.90;;;3.83;;
14116;SDS011;7137;51.436;6.544;2023-06-19T16:09:30;5.50;;;3.60;;
14116;SDS011;7137;51.436;6.544;2023-06-19T16:12:32;4.60;;;3.73;;
14116;SDS011;7137;51.436;6.544;2023-06-19T16:15:34;5.53;;;3.70;;
14116;SDS011;7137;51.436;6.544;2023-06-19T16:18:35;5.20;;;3.80;;
14116;SDS011;7137;51.436;6.544;2023-06-19T16:21:38;7.57;;;4.40;;
14116;SDS011;7137;51.436;6.544;2023-06-19T16:24:40;5.53;;;4.13;;
14116;SDS011;7137;51.436;6.544;2023-06-19T16:27:42;5.83;;;4.10;;
14116;SDS011;7137;51.436;6.544;2023-06-19T16:30:44;7.37;;;4.07;;
14116;SDS011;7137;51.436;6.544;2023-06-19T16:33:45;5.13;;;3.60;;
14116;SDS011;7137;51.436;6.544;2023-06-19T16:36:48;7.40;;;4.30;;
14116;SDS011;7137;51.436;6.544;2023-06-19T16:39:50;5.70;;;3.77;;
14116;SDS011;7137;51.436;6.544;2023-06-19T16:42:52;6.23;;;4.03;;
14116;SDS011;7137;51.436;6.544;2023-06-19T16:45:54;5.87;;;4.20;;
14116;SDS011;7137;51.436;6.544;2023-06-19T16:48:55;6.37;;;4.13;;
14116;SDS011;7137;51.436;6.544;2023-06-19T16:51:58;5.73;;;3.93;;
14116;SDS011;7137;51.436;6.544;2023-06-19T16:55:00;6.20;;;3.87;;
14116;SDS011;7137;51.436;6.544;2023-06-19T16:58:03;7.10;;;4.17;;
14116;SDS011;7137;51.436;6.544;2023-06-19T17:01:04;4.63;;;3.60;;
14116;SDS011;7137;51.436;6.544;2023-06-19T17:04:06;5.93;;;3.70;;
14116;SDS011;7137;51.436;6.544;2023-06-19T17:07:09;5.47;;;3.77;;
14116;SDS011;7137;51.436;6.544;2023-06-19T17:10:11;4.90;;;3.67;;
14116;SDS011;7137;51.436;6.544;2023-06-19T17:13:15;6.13;;;3.67;;
14116;SDS011;7137;51.436;6.544;2023-06-19T17:16:16;5.60;;;3.80;;
14116;SDS011;7137;51.436;6.544;2023-06-19T17:19:18;5.80;;;3.70;;
14116;SDS011;7137;51.436;6.544;2023-06-19T17:22:21;6.03;;;3.83;;
14116;SDS011;7137;51.436;6.544;2023-06-19T17:25:22;4.87;;;3.53;;
14116;SDS011;7137;51.436;6.544;2023-06-19T17:28:24;4.60;;;3.50;;
14116;SDS011;7137;51.436;6.544;2023-06-19T17:31:26;6.57;;;3.70;;
14116;SDS011;7137;51.436;6.544;2023-06-19T17:34:27;6.10;;;3.90;;
14116;SDS011;7137;51.436;6.544;2023-06-19T17:37:30;6.30;;;4.07;;
14116;SDS011;7137;51.436;6.544;2023-06-19T17:40:32;4.80;;;3.60;;
14116;SDS011;7137;51.436;6.544;2023-06-19T17:43:33;6.47;;;4.40;;
14116;SDS011;7137;51.436;6.544;2023-06-19T17:46:35;5.73;;;4.00;;
14116;SDS011;7137;51.436;6.544;2023-06-19T17:49:38;6.53;;;4.30;;
14116;SDS011;7137;51.436;6.544;2023-06-19T17:52:41;6.70;;;4.00;;
14116;SDS011;7137;51.436;6.544;2023-06-19T17:55:42;5.60;;;3.90;;
14116;SDS011;7137;51.436;6.544;2023-06-19T17:58:44;7.17;;;4.00;;
14116;SDS011;7137;51.436;6.544;2023-06-19T18:01:45;5.80;;;4.00;;
14116;SDS011;7137;51.436;6.544;2023-06-19T18:04:47;6.63;;;3.80;;
14116;SDS011;7137;51.436;6.544;2023-06-19T18:07:50;5.50;;;3.97;;
14116;SDS011;7137;51.436;6.544;2023-06-19T18:10:51;6.33;;;4.40;;
14116;SDS011;7137;51.436;6.544;2023-06-19T18:13:53;5.50;;;4.00;;
14116;SDS011;7137;51.436;6.544;2023-06-19T18:16:55;5.80;;;4.07;;
14116;SDS011;7137;51.436;6.544;2023-06-19T18:20:01;5.00;;;4.03;;
14116;SDS011;7137;51.436;6.544;2023-06-19T18:23:04;18.20;;;4.73;;
14116;SDS011;7137;51.436;6.544;2023-06-19T18:26:06;6.03;;;4.40;;
14116;SDS011;7137;51.436;6.544;2023-06-19T18:29:07;6.03;;;4.20;;
14116;SDS011;7137;51.436;6.544;2023-06-19T18:32:09;6.60;;;4.60;;
14116;SDS011;7137;51.436;6.544;2023-06-19T18:35:10;6.43;;;4.23;;